Terminal Aerodrome Forecast
Issued by NWS

Home | Current Version | Previous Version | Text Only | Print | Product List | Glossary Off
Versions: 1 2 3 4 5 6 7 8 9 10 11 12 13

972
FTUS45 KGGW 220540
TAFSDY
TAF
KSDY 220540Z 2206/2306 35008KT P6SM VCSH FEW007 BKN015
     FM220700 35006KT 2SM -SN OVC007
     FM220800 35007KT 5SM -SNRA OVC007
     FM221200 01010G18KT 2SM -SN SCT003 OVC004
     FM221500 36011KT 6SM -SHSN SCT005 OVC007
     FM221800 36011KT P6SM SCT014 OVC015=

USA.gov is the U.S. government's official web portal to all federal, state and local government web resources and services.